Time;durP1;ratioP1;P1;durP2;ratioP2;P2;SDS_P1;SDS_P2;PMS_P1;PMS_P2;Temp;Humidity;BMP_temperature;BMP_pressure;BME280_temperature;BME280_humidity;BME280_pressure;Samples;Min_cycle;Max_cycle;Signal;HPM_P1;HPM_P2
2022/03/31 00:01:02;;;;;;;13.90;12.10;;;;;;;9.55;100.00;93513.97;5098176;28;20207;-66
2022/03/31 00:03:28;;;;;;;16.63;13.13;;;;;;;9.61;100.00;93506.00;5098290;28;20227;-66
2022/03/31 00:05:53;;;;;;;16.80;13.43;;;;;;;9.61;100.00;93501.31;5116518;28;20197;-66
2022/03/31 00:08:20;;;;;;;17.23;13.77;;;;;;;9.67;100.00;93494.09;5098188;28;20240;-61
2022/03/31 00:10:48;;;;;;;15.33;12.77;;;;;;;9.66;100.00;93498.00;5098204;28;20196;-65
2022/03/31 00:13:16;;;;;;;13.63;12.10;;;;;;;9.69;100.00;93499.13;5098270;28;20196;-59
2022/03/31 00:15:42;;;;;;;14.83;12.80;;;;;;;9.72;100.00;93500.94;5098613;28;20215;-58
2022/03/31 00:18:09;;;;;;;15.60;12.63;;;;;;;9.74;100.00;93493.84;5097854;28;20301;-59
2022/03/31 00:20:34;;;;;;;17.23;12.87;;;;;;;9.77;100.00;93492.94;5098759;28;20227;-58
2022/03/31 00:23:00;;;;;;;16.03;12.90;;;;;;;9.78;100.00;93494.47;5098449;28;20199;-58
2022/03/31 00:25:26;;;;;;;16.33;13.07;;;;;;;9.81;100.00;93498.28;5098221;28;20224;-58
2022/03/31 00:27:53;;;;;;;17.40;13.47;;;;;;;9.80;100.00;93486.59;5097962;28;20200;-58
2022/03/31 00:30:19;;;;;;;17.20;13.20;;;;;;;9.79;100.00;93476.91;5097557;28;20199;-60
2022/03/31 00:32:44;;;;;;;18.83;12.50;;;;;;;9.81;100.00;93476.47;5097913;28;20235;-60
2022/03/31 00:35:13;;;;;;;15.13;12.97;;;;;;;9.81;100.00;93476.47;5097645;28;20211;-60
2022/03/31 00:37:46;;;;;;;16.53;12.97;;;;;;;9.82;100.00;93478.75;5098358;28;20196;-60
2022/03/31 00:40:15;;;;;;;16.23;12.90;;;;;;;9.80;100.00;93478.44;5097772;28;20225;-60
2022/03/31 00:42:42;;;;;;;18.40;13.60;;;;;;;9.59;100.00;93476.47;5097804;28;20201;-60
2022/03/31 00:45:17;;;;;;;19.50;13.10;;;;;;;9.60;100.00;93472.56;5097499;28;20180;-67
2022/03/31 00:47:42;;;;;;;18.07;13.70;;;;;;;9.63;100.00;93471.69;5098095;28;20199;-66
2022/03/31 00:50:09;;;;;;;17.90;14.70;;;;;;;9.52;100.00;93476.75;5097960;28;20205;-62
2022/03/31 00:52:35;;;;;;;16.97;13.67;;;;;;;9.43;100.00;93473.16;5115523;28;20225;-62
2022/03/31 00:55:00;;;;;;;18.30;13.27;;;;;;;9.45;100.00;93466.09;5097358;28;20295;-62
2022/03/31 00:57:26;;;;;;;16.43;13.33;;;;;;;9.49;100.00;93465.94;5097543;28;20193;-62
2022/03/31 00:59:53;;;;;;;16.73;13.13;;;;;;;9.47;100.00;93452.78;5097281;28;20199;-62
2022/03/31 01:02:18;;;;;;;18.00;13.93;;;;;;;9.46;100.00;93459.44;5097287;28;20193;-62
2022/03/31 01:04:43;;;;;;;18.03;14.33;;;;;;;9.41;100.00;93448.34;5097314;28;20248;-62
2022/03/31 01:07:09;;;;;;;16.77;13.33;;;;;;;9.38;100.00;93452.72;5097537;28;20250;-66
2022/03/31 01:09:34;;;;;;;16.87;13.17;;;;;;;9.44;100.00;93447.47;5096983;28;20195;-66
2022/03/31 01:12:01;;;;;;;18.83;13.80;;;;;;;9.49;100.00;93439.47;5097981;28;20200;-66
2022/03/31 01:14:26;;;;;;;16.87;13.33;;;;;;;9.54;100.00;93438.91;5096994;28;20534;-66
2022/03/31 01:16:51;;;;;;;17.90;13.40;;;;;;;9.57;100.00;93429.06;5097559;28;20219;-66
2022/03/31 01:19:17;;;;;;;19.33;14.40;;;;;;;9.59;100.00;93432.88;5097322;28;20208;-66
2022/03/31 01:21:46;;;;;;;20.93;14.90;;;;;;;9.61;100.00;93430.47;5096726;28;20207;-66
2022/03/31 01:24:15;;;;;;;19.07;14.63;;;;;;;9.66;100.00;93420.97;5097341;28;20207;-66
2022/03/31 01:26:42;;;;;;;18.33;14.10;;;;;;;9.69;100.00;93425.53;5097031;28;20196;-66
2022/03/31 01:29:08;;;;;;;20.93;15.30;;;;;;;9.60;100.00;93425.47;5096680;28;20205;-67
2022/03/31 01:31:35;;;;;;;22.50;16.50;;;;;;;9.68;100.00;93424.75;5097084;28;20200;-66
2022/03/31 01:34:01;;;;;;;21.83;17.30;;;;;;;9.58;100.00;93420.44;5096103;28;20221;-66
2022/03/31 01:36:26;;;;;;;22.00;17.37;;;;;;;9.58;100.00;93425.91;5097319;28;20668;-66
2022/03/31 01:38:53;;;;;;;23.63;17.37;;;;;;;9.60;100.00;93417.28;5096693;28;20211;-66
2022/03/31 01:41:18;;;;;;;23.23;18.13;;;;;;;9.49;100.00;93411.47;5096636;28;20269;-67
2022/03/31 01:43:44;;;;;;;25.27;18.17;;;;;;;9.52;100.00;93411.34;5097464;28;20172;-58
2022/03/31 01:46:09;;;;;;;22.10;16.93;;;;;;;9.52;100.00;93411.34;5096521;28;20192;-59
2022/03/31 01:48:35;;;;;;;23.67;17.47;;;;;;;9.51;100.00;93400.91;5096641;28;20252;-58
2022/03/31 01:51:04;;;;;;;24.17;18.33;;;;;;;9.48;100.00;93397.06;5096495;28;20196;-59
2022/03/31 01:53:35;;;;;;;26.77;19.20;;;;;;;9.38;100.00;93394.75;5114443;28;20213;-59
2022/03/31 01:56:02;;;;;;;27.30;19.17;;;;;;;9.37;100.00;93396.69;5096253;28;20228;-59
2022/03/31 01:58:27;;;;;;;23.43;18.10;;;;;;;9.41;100.00;93399.31;5096283;28;20192;-61
2022/03/31 02:00:53;;;;;;;23.40;18.17;;;;;;;9.45;100.00;93395.25;5096622;28;20206;-66
2022/03/31 02:03:18;;;;;;;23.73;18.10;;;;;;;9.47;100.00;93392.84;5096777;28;20202;-62
2022/03/31 02:05:44;;;;;;;22.63;17.53;;;;;;;9.51;100.00;93385.28;5096861;28;20195;-62
2022/03/31 02:08:10;;;;;;;25.33;17.80;;;;;;;9.54;100.00;93386.34;5096637;28;20208;-62
2022/03/31 02:10:35;;;;;;;25.03;18.63;;;;;;;9.52;100.00;93388.78;5096895;28;20285;-63
2022/03/31 02:13:01;;;;;;;27.37;19.47;;;;;;;9.45;100.00;93378.91;5096898;28;20176;-63
2022/03/31 02:15:29;;;;;;;25.23;18.57;;;;;;;9.41;100.00;93372.84;5096226;28;20203;-62
2022/03/31 02:17:55;;;;;;;26.60;17.93;;;;;;;9.37;100.00;93372.19;5097075;28;20196;-62
2022/03/31 02:20:22;;;;;;;25.77;19.17;;;;;;;8.91;100.00;93366.88;5096439;28;20200;-60
2022/03/31 02:22:48;;;;;;;24.93;18.47;;;;;;;8.79;100.00;93362.25;5096112;28;20206;-59
2022/03/31 02:25:13;;;;;;;25.80;19.03;;;;;;;8.89;100.00;93353.69;5095891;28;20224;-60
2022/03/31 02:27:39;;;;;;;27.30;20.43;;;;;;;8.93;100.00;93345.41;5096225;28;20196;-60
2022/03/31 02:30:08;;;;;;;26.23;18.37;;;;;;;8.95;100.00;93346.50;5096266;28;20290;-60
2022/03/31 02:32:35;;;;;;;26.40;17.90;;;;;;;8.88;100.00;93344.03;5096153;28;20200;-59
2022/03/31 02:35:01;;;;;;;27.67;19.73;;;;;;;8.88;100.00;93341.28;5096261;28;20257;-60
2022/03/31 02:37:26;;;;;;;25.17;19.03;;;;;;;8.86;100.00;93340.22;5096127;28;20196;-59
2022/03/31 02:39:52;;;;;;;25.90;18.77;;;;;;;8.84;100.00;93342.63;5096707;28;20213;-70
2022/03/31 02:42:17;;;;;;;25.53;18.60;;;;;;;8.78;100.00;93342.41;5095761;28;20207;-70
2022/03/31 02:44:44;;;;;;;26.93;19.27;;;;;;;8.72;100.00;93333.31;5096287;28;20196;-71
2022/03/31 02:47:09;;;;;;;27.93;20.37;;;;;;;8.73;100.00;93329.41;5098000;28;20207;-71
2022/03/31 02:49:35;;;;;;;27.17;19.57;;;;;;;8.73;100.00;93323.94;5099637;28;20192;-70
2022/03/31 02:52:01;;;;;;;27.77;19.10;;;;;;;8.70;100.00;93322.09;5099410;28;20256;-71
2022/03/31 02:57:11;;;;;;;28.37;19.53;;;;;;;8.53;100.00;93325.44;5117876;28;20272;-58
2022/03/31 02:59:36;;;;;;;26.63;19.23;;;;;;;8.66;100.00;93329.63;5099235;28;20200;-58
2022/03/31 03:02:01;;;;;;;26.47;19.50;;;;;;;8.67;100.00;93324.97;5099855;28;20188;-59
2022/03/31 03:04:27;;;;;;;32.50;20.60;;;;;;;8.66;100.00;93307.09;5099380;28;20198;-58
2022/03/31 03:06:52;;;;;;;26.70;19.90;;;;;;;8.64;100.00;93310.25;5099006;28;20196;-58
2022/03/31 03:09:18;;;;;;;31.60;24.07;;;;;;;8.62;100.00;93312.69;5098876;28;20241;-58
2022/03/31 03:11:43;;;;;;;35.37;24.27;;;;;;;8.66;100.00;93310.59;5099514;28;20206;-58
2022/03/31 03:14:12;;;;;;;30.13;21.60;;;;;;;8.62;100.00;93301.78;5099436;28;20207;-65
2022/03/31 03:16:38;;;;;;;28.50;20.43;;;;;;;8.65;100.00;93300.91;5099454;28;20208;-62
2022/03/31 03:19:03;;;;;;;29.10;20.93;;;;;;;8.67;100.00;93303.94;5099273;28;20210;-62
2022/03/31 03:21:29;;;;;;;28.47;20.33;;;;;;;8.76;100.00;93312.19;5098634;28;20205;-62
2022/03/31 03:23:54;;;;;;;28.00;19.13;;;;;;;8.81;100.00;93314.34;5099252;28;20227;-62
2022/03/31 03:26:20;;;;;;;25.70;18.83;;;;;;;8.80;100.00;93312.81;5099149;28;20215;-63
2022/03/31 03:28:46;;;;;;;25.33;18.07;;;;;;;8.81;100.00;93310.84;5099168;28;20195;-62
2022/03/31 03:31:12;;;;;;;26.47;19.13;;;;;;;8.81;100.00;93302.69;5098597;28;20195;-60
2022/03/31 03:33:38;;;;;;;22.97;17.77;;;;;;;8.80;100.00;93304.66;5099424;28;20203;-58
2022/03/31 03:36:06;;;;;;;26.00;18.47;;;;;;;8.81;100.00;93306.16;5098929;28;20430;-62
2022/03/31 03:38:31;;;;;;;25.23;19.27;;;;;;;8.84;100.00;93307.25;5099200;28;20169;-62
2022/03/31 03:40:56;;;;;;;26.57;19.30;;;;;;;8.83;100.00;93309.22;5099091;28;20202;-62
2022/03/31 03:43:22;;;;;;;24.50;18.30;;;;;;;8.84;100.00;93305.28;5098414;28;20195;-63
2022/03/31 03:45:48;;;;;;;28.60;19.67;;;;;;;8.66;100.00;93297.00;5098614;28;20195;-62
2022/03/31 03:48:13;;;;;;;27.73;19.10;;;;;;;8.66;100.00;93302.44;5098533;28;20252;-62
2022/03/31 03:50:39;;;;;;;26.37;18.77;;;;;;;8.65;100.00;93303.63;5099118;28;20191;-62
2022/03/31 03:53:05;;;;;;;26.37;20.00;;;;;;;8.51;100.00;93295.97;5098443;28;20198;-62
2022/03/31 03:55:31;;;;;;;27.27;19.73;;;;;;;8.51;100.00;93301.41;5098309;28;20249;-62
2022/03/31 03:57:57;;;;;;;29.43;18.97;;;;;;;8.57;100.00;93304.31;5097736;28;20192;-62
2022/03/31 04:00:22;;;;;;;26.67;19.20;;;;;;;8.59;100.00;93302.69;5098825;28;20210;-63
2022/03/31 04:02:48;;;;;;;30.10;19.83;;;;;;;8.49;100.00;93295.63;5098043;28;20291;-62
2022/03/31 04:05:13;;;;;;;27.40;19.10;;;;;;;8.45;100.00;93289.56;5098130;28;20200;-62
2022/03/31 04:07:38;;;;;;;28.20;20.17;;;;;;;8.43;100.00;93296.66;5098227;28;20195;-67
2022/03/31 04:10:04;;;;;;;24.87;18.00;;;;;;;8.37;100.00;93291.00;5098745;28;20207;-62
2022/03/31 04:12:29;;;;;;;27.70;19.60;;;;;;;8.45;100.00;93296.97;5098574;28;20208;-61
2022/03/31 04:14:55;;;;;;;28.37;18.70;;;;;;;8.53;100.00;93298.25;5098342;28;20205;-62
2022/03/31 04:17:21;;;;;;;27.97;19.63;;;;;;;8.16;100.00;93288.97;5098432;28;20199;-62
2022/03/31 04:19:46;;;;;;;27.77;19.40;;;;;;;8.32;100.00;93288.84;5097969;28;20289;-62
2022/03/31 04:22:11;;;;;;;27.37;19.17;;;;;;;8.40;100.00;93287.41;5098255;28;20202;-62
2022/03/31 04:24:36;;;;;;;26.97;20.40;;;;;;;8.41;100.00;93285.47;5097880;28;20214;-62
2022/03/31 04:27:02;;;;;;;27.77;19.73;;;;;;;8.33;100.00;93284.94;5097749;28;20200;-66
2022/03/31 04:29:28;;;;;;;27.03;18.77;;;;;;;8.34;100.00;93283.72;5097737;28;20195;-59
2022/03/31 04:31:53;;;;;;;29.07;19.33;;;;;;;8.37;100.00;93284.78;5098048;28;20299;-59
2022/03/31 04:34:20;;;;;;;25.90;19.13;;;;;;;8.35;100.00;93287.97;5098280;28;20212;-60
2022/03/31 04:36:46;;;;;;;27.13;20.37;;;;;;;8.33;100.00;93290.38;5097577;28;20564;-65
2022/03/31 04:39:12;;;;;;;27.10;20.13;;;;;;;8.32;100.00;93288.84;5097479;28;20206;-61
2022/03/31 04:41:39;;;;;;;28.20;20.93;;;;;;;8.35;100.00;93285.25;5098058;28;20203;-61
2022/03/31 04:44:04;;;;;;;29.00;19.53;;;;;;;8.39;100.00;93288.63;5098077;28;20226;-67
2022/03/31 04:46:30;;;;;;;28.93;20.37;;;;;;;8.29;100.00;93291.69;5097538;28;20206;-62
2022/03/31 04:48:55;;;;;;;30.20;20.10;;;;;;;8.01;100.00;93287.91;5097495;28;20209;-62
2022/03/31 04:51:20;;;;;;;30.17;20.97;;;;;;;7.91;100.00;93280.91;5097492;28;20204;-62
2022/03/31 04:53:46;;;;;;;29.10;20.67;;;;;;;7.87;100.00;93280.22;5097567;28;20199;-62
2022/03/31 04:56:11;;;;;;;31.17;21.20;;;;;;;7.74;100.00;93276.78;5097692;28;20210;-64
2022/03/31 04:58:37;;;;;;;30.23;20.80;;;;;;;7.68;100.00;93278.50;5097458;28;20197;-62
2022/03/31 05:01:04;;;;;;;30.57;21.33;;;;;;;7.86;100.00;93280.69;5097376;28;20249;-62
2022/03/31 05:03:29;;;;;;;31.70;21.10;;;;;;;7.99;100.00;93286.84;5097596;28;20275;-69
2022/03/31 05:05:54;;;;;;;29.93;21.30;;;;;;;7.70;100.00;93289.72;5097519;28;20223;-61
2022/03/31 05:08:20;;;;;;;31.90;21.23;;;;;;;7.52;100.00;93284.06;5096913;28;20202;-62
2022/03/31 05:10:45;;;;;;;32.60;21.37;;;;;;;7.74;100.00;93284.94;5096790;28;20183;-63
2022/03/31 05:13:11;;;;;;;29.57;20.57;;;;;;;7.71;100.00;93280.38;5097213;28;20283;-62
2022/03/31 05:15:37;;;;;;;28.53;20.10;;;;;;;7.57;100.00;93280.81;5097055;28;20233;-62
2022/03/31 05:18:02;;;;;;;30.73;21.10;;;;;;;7.63;100.00;93276.34;5096943;28;20195;-63
2022/03/31 05:20:28;;;;;;;32.17;21.63;;;;;;;7.62;100.00;93280.28;5096676;28;20203;-62
2022/03/31 05:22:53;;;;;;;29.50;21.23;;;;;;;7.79;100.00;93272.75;5097487;28;20262;-64
2022/03/31 05:25:19;;;;;;;30.50;21.40;;;;;;;7.88;100.00;93275.56;5096964;28;20210;-66
2022/03/31 05:27:46;;;;;;;31.93;22.17;;;;;;;7.74;100.00;93265.91;5096859;28;20207;-66
2022/03/31 05:30:14;;;;;;;33.00;21.17;;;;;;;7.66;100.00;93270.06;5096900;28;20211;-67
2022/03/31 05:32:40;;;;;;;31.07;20.67;;;;;;;7.67;100.00;93271.56;5096960;28;20299;-66
2022/03/31 05:35:07;;;;;;;30.23;20.73;;;;;;;7.68;100.00;93267.66;5096556;28;20192;-66
2022/03/31 05:37:33;;;;;;;29.73;20.47;;;;;;;7.82;100.00;93267.19;5096902;28;20196;-66
2022/03/31 05:40:00;;;;;;;26.50;20.13;;;;;;;7.82;100.00;93267.19;5097107;28;20183;-62
2022/03/31 05:42:26;;;;;;;29.07;19.53;;;;;;;7.93;100.00;93261.41;5096954;28;20203;-62
2022/03/31 05:44:51;;;;;;;31.00;20.70;;;;;;;7.94;100.00;93258.25;5096720;28;20195;-63
2022/03/31 05:47:16;;;;;;;30.43;19.47;;;;;;;8.07;100.00;93255.50;5096591;28;20206;-63
2022/03/31 05:49:42;;;;;;;28.27;19.23;;;;;;;8.19;100.00;93263.63;5096984;28;20192;-63
2022/03/31 05:52:07;;;;;;;28.40;19.80;;;;;;;8.33;100.00;93262.41;5096438;28;20196;-63
2022/03/31 05:54:32;;;;;;;27.43;19.87;;;;;;;8.26;100.00;93263.41;5096450;28;20250;-62
2022/03/31 05:56:58;;;;;;;26.30;18.67;;;;;;;8.30;100.00;93255.91;5096365;28;20212;-62
2022/03/31 05:59:23;;;;;;;30.47;21.80;;;;;;;8.13;100.00;93257.25;5096378;28;20210;-67
2022/03/31 06:01:48;;;;;;;29.23;21.37;;;;;;;8.23;100.00;93258.84;5096389;28;20206;-63
2022/03/31 06:04:19;;;;;;;33.87;21.73;;;;;;;8.13;100.00;93254.53;5096668;28;20207;-63
2022/03/31 06:06:45;;;;;;;32.13;21.10;;;;;;;8.23;100.00;93258.84;5096977;28;20191;-63
2022/03/31 06:09:10;;;;;;;31.30;21.77;;;;;;;8.32;100.00;93258.19;5096289;28;20206;-63
2022/03/31 06:11:35;;;;;;;29.53;21.37;;;;;;;8.51;100.00;93263.31;5096472;28;20181;-62
2022/03/31 06:14:00;;;;;;;31.67;22.27;;;;;;;8.61;100.00;93267.63;5096493;28;20200;-62
2022/03/31 06:16:26;;;;;;;31.00;21.03;;;;;;;8.70;100.00;93275.84;5096122;28;20250;-63
2022/03/31 06:18:51;;;;;;;30.73;21.37;;;;;;;8.81;100.00;93275.47;5096111;28;20210;-62
2022/03/31 06:21:17;;;;;;;30.70;21.17;;;;;;;8.88;100.00;93270.53;5098263;28;20203;-70
2022/03/31 06:23:42;;;;;;;31.37;21.60;;;;;;;8.90;100.00;93272.81;5099899;28;20311;-70
2022/03/31 06:26:07;;;;;;;29.97;21.13;;;;;;;8.90;100.00;93268.16;5099607;28;20234;-70
2022/03/31 06:28:33;;;;;;;31.27;21.67;;;;;;;8.71;100.00;93273.91;5099670;28;20200;-71
2022/03/31 06:30:59;;;;;;;30.67;21.50;;;;;;;8.60;100.00;93268.81;5099633;28;20210;-70
2022/03/31 06:33:25;;;;;;;31.20;21.80;;;;;;;8.61;100.00;93270.38;5099707;28;20199;-71
2022/03/31 06:35:50;;;;;;;33.43;22.37;;;;;;;8.62;100.00;93269.16;5100247;28;20288;-59
2022/03/31 06:38:16;;;;;;;30.63;22.20;;;;;;;8.43;100.00;93267.50;5099307;28;20199;-63
2022/03/31 06:40:41;;;;;;;32.60;22.00;;;;;;;8.38;100.00;93270.75;5099929;28;20228;-63
2022/03/31 06:43:07;;;;;;;30.97;22.33;;;;;;;8.03;100.00;93269.22;5099970;28;20176;-63
2022/03/31 06:45:34;;;;;;;33.10;22.03;;;;;;;7.91;100.00;93264.59;5099921;28;20187;-62
2022/03/31 06:48:01;;;;;;;33.03;22.77;;;;;;;7.94;100.00;93262.94;5099634;28;20203;-62
2022/03/31 06:50:27;;;;;;;33.17;23.20;;;;;;;8.03;100.00;93250.19;5099315;28;20249;-62
2022/03/31 06:52:52;;;;;;;33.43;22.90;;;;;;;8.30;100.00;93249.72;5099153;28;20293;-62
2022/03/31 06:55:17;;;;;;;33.23;22.63;;;;;;;8.47;100.00;93243.66;5099196;28;20227;-62
2022/03/31 06:57:43;;;;;;;29.97;21.17;;;;;;;8.37;100.00;93242.06;5098905;28;20191;-63
2022/03/31 07:00:09;;;;;;;31.50;22.13;;;;;;;8.57;100.00;93245.25;5099272;28;20192;-63
2022/03/31 07:02:34;;;;;;;34.40;21.47;;;;;;;8.70;100.00;93237.75;5099312;28;20191;-63
2022/03/31 07:05:00;;;;;;;33.00;22.30;;;;;;;8.89;100.00;93242.13;5099524;28;20192;-63
2022/03/31 07:07:25;;;;;;;29.63;21.73;;;;;;;9.10;100.00;93246.78;5099217;28;20255;-63
2022/03/31 07:09:51;;;;;;;33.07;22.57;;;;;;;9.27;100.00;93231.75;5099523;28;20245;-63
2022/03/31 07:12:17;;;;;;;35.23;22.97;;;;;;;9.45;100.00;93229.09;5098926;28;20184;-63
2022/03/31 07:14:43;;;;;;;31.53;21.30;;;;;;;9.17;100.00;93238.34;5099192;28;20195;-62
2022/03/31 07:17:09;;;;;;;29.63;21.23;;;;;;;9.40;100.00;93239.81;5099147;28;20226;-61
2022/03/31 07:19:35;;;;;;;27.27;20.50;;;;;;;9.54;100.00;93234.56;5098702;28;20199;-62
2022/03/31 07:22:00;;;;;;;30.80;21.10;;;;;;;9.20;100.00;93237.44;5098616;28;20200;-61
2022/03/31 07:24:25;;;;;;;30.80;21.83;;;;;;;9.17;100.00;93248.47;5098606;28;20204;-62
2022/03/31 07:26:51;;;;;;;29.53;20.47;;;;;;;9.47;100.00;93240.28;5098824;28;20261;-61
2022/03/31 07:29:16;;;;;;;32.10;21.93;;;;;;;9.41;100.00;93247.53;5098906;28;20251;-60
2022/03/31 07:31:41;;;;;;;29.20;20.63;;;;;;;9.46;100.00;93244.22;5097971;28;20231;-60
2022/03/31 07:34:07;;;;;;;30.17;20.70;;;;;;;9.54;100.00;93244.69;5098655;28;20232;-64
2022/03/31 07:36:32;;;;;;;28.33;20.17;;;;;;;9.45;100.00;93244.66;5098658;28;20332;-64
2022/03/31 07:38:57;;;;;;;26.63;19.17;;;;;;;9.34;100.00;93245.09;5098868;28;20200;-64
2022/03/31 07:41:23;;;;;;;29.33;19.97;;;;;;;9.10;100.00;93248.72;5098998;28;20199;-63
2022/03/31 07:43:48;;;;;;;31.87;21.87;;;;;;;9.35;100.00;93243.88;5099057;28;20185;-64
2022/03/31 07:46:14;;;;;;;29.47;21.10;;;;;;;9.63;100.00;93242.78;5098894;28;20191;-65
2022/03/31 07:48:39;;;;;;;31.67;21.80;;;;;;;9.77;100.00;93239.47;5099117;28;20195;-63
2022/03/31 07:51:05;;;;;;;27.33;20.80;;;;;;;9.92;100.00;93237.69;5098176;28;20201;-65
2022/03/31 07:53:33;;;;;;;32.77;21.60;;;;;;;10.09;100.00;93241.69;5098586;28;20208;-58
2022/03/31 07:56:05;;;;;;;30.53;21.60;;;;;;;10.21;100.00;93231.84;5097889;28;20207;-58
2022/03/31 07:58:31;;;;;;;30.17;22.07;;;;;;;10.34;100.00;93239.91;5098207;28;20271;-58
2022/03/31 08:00:57;;;;;;;30.53;20.80;;;;;;;10.30;100.00;93239.31;5098527;28;20202;-59
2022/03/31 08:03:22;;;;;;;32.00;22.33;;;;;;;10.34;100.00;93237.19;5098139;28;20264;-58
2022/03/31 08:05:49;;;;;;;29.73;20.63;;;;;;;10.18;100.00;93232.00;5098374;28;20254;-58
2022/03/31 08:08:14;;;;;;;32.90;21.63;;;;;;;10.25;100.00;93226.25;5098526;28;20221;-57
2022/03/31 08:10:40;;;;;;;30.30;21.07;;;;;;;10.56;100.00;93232.31;5098354;28;20208;-61
2022/03/31 08:13:06;;;;;;;28.57;21.00;;;;;;;10.48;100.00;93231.13;5098638;28;20174;-61
2022/03/31 08:15:31;;;;;;;30.77;20.93;;;;;;;10.33;100.00;93222.00;5098642;28;20209;-61
2022/03/31 08:17:58;;;;;;;28.30;21.53;;;;;;;10.61;100.00;93223.53;5098430;28;20335;-62
2022/03/31 08:20:23;;;;;;;30.97;21.97;;;;;;;10.89;100.00;93225.75;5098641;28;20201;-60
2022/03/31 08:22:48;;;;;;;29.13;21.23;;;;;;;10.90;100.00;93229.25;5097957;28;20202;-60
2022/03/31 08:25:15;;;;;;;29.47;21.60;;;;;;;10.67;100.00;93229.91;5098032;28;20245;-57
2022/03/31 08:27:40;;;;;;;29.30;21.50;;;;;;;10.70;100.00;93223.53;5098659;28;20204;-58
2022/03/31 08:30:09;;;;;;;31.17;21.93;;;;;;;10.79;100.00;93228.97;5097625;28;20275;-62
2022/03/31 08:32:36;;;;;;;29.30;21.23;;;;;;;10.97;100.00;93232.44;5097980;28;20196;-62
2022/03/31 08:35:06;;;;;;;28.90;21.03;;;;;;;10.79;100.00;93228.97;5093509;28;20231;-62
2022/03/31 08:37:31;;;;;;;30.37;21.10;;;;;;;10.51;100.00;93222.78;5093703;28;20228;-64
2022/03/31 08:39:57;;;;;;;29.80;21.40;;;;;;;10.76;100.00;93229.88;5076684;28;20220;-65
2022/03/31 08:42:22;;;;;;;30.57;21.73;;;;;;;10.79;100.00;93231.69;5093235;28;20170;-64
2022/03/31 08:44:53;;;;;;;33.17;20.73;;;;;;;10.85;100.00;93229.88;5076585;28;20297;-65
2022/03/31 08:47:19;;;;;;;29.27;20.80;;;;;;;10.85;100.00;93229.88;5076358;28;20203;-59
2022/03/31 08:49:46;;;;;;;30.80;21.20;;;;;;;10.74;100.00;93229.59;5076206;28;20205;-59
2022/03/31 08:52:12;;;;;;;33.57;21.53;;;;;;;10.64;100.00;93230.81;5076302;28;20211;-59
2022/03/31 08:54:40;;;;;;;31.03;21.97;;;;;;;10.73;100.00;93228.03;5092964;28;20209;-59
2022/03/31 08:57:05;;;;;;;30.50;20.30;;;;;;;10.73;100.00;93222.59;5092938;28;20227;-59
2022/03/31 08:59:31;;;;;;;29.03;20.47;;;;;;;10.58;100.00;93229.88;5076364;28;20193;-59
2022/03/31 09:01:57;;;;;;;29.87;20.37;;;;;;;10.30;100.00;93228.38;5076244;28;20199;-58
2022/03/31 09:04:23;;;;;;;27.17;19.63;;;;;;;10.31;100.00;93224.44;5093360;28;20203;-61
2022/03/31 09:07:06;;;;;;;32.20;21.63;;;;;;;10.35;100.00;93225.03;5110474;28;20256;-59
2022/03/31 09:09:46;;;;;;;30.93;21.00;;;;;;;10.23;100.00;93217.78;5097679;28;20237;-60
2022/03/31 09:12:11;;;;;;;35.93;22.37;;;;;;;10.41;100.00;93217.78;5097184;28;20198;-59
2022/03/31 09:14:37;;;;;;;30.93;20.87;;;;;;;10.47;100.00;93215.94;5114987;28;20200;-60
2022/03/31 09:17:13;;;;;;;32.97;21.47;;;;;;;10.57;100.00;93214.72;5097001;28;20210;-60
2022/03/31 09:19:39;;;;;;;31.33;20.87;;;;;;;10.64;100.00;93220.66;5097231;28;20196;-60
2022/03/31 09:22:05;;;;;;;26.63;18.80;;;;;;;10.88;100.00;93223.47;5096995;28;20208;-63
2022/03/31 09:24:31;;;;;;;29.70;19.83;;;;;;;10.48;100.00;93218.22;5096780;28;20204;-55
2022/03/31 09:26:58;;;;;;;29.20;20.10;;;;;;;10.78;100.00;93230.19;5115276;28;20199;-57
2022/03/31 09:29:26;;;;;;;30.13;19.87;;;;;;;11.06;100.00;93218.75;5097267;28;20280;-58
2022/03/31 09:31:52;;;;;;;27.70;19.50;;;;;;;11.17;100.00;93216.28;5096951;28;20186;-58
2022/03/31 09:34:18;;;;;;;31.13;20.13;;;;;;;11.34;100.00;93225.66;5097256;28;20200;-58
2022/03/31 09:36:49;;;;;;;31.33;20.20;;;;;;;11.15;100.00;93221.44;5096701;28;20262;-57
2022/03/31 09:39:17;;;;;;;31.23;20.80;;;;;;;10.83;100.00;93233.06;5096709;28;20277;-58
2022/03/31 09:41:44;;;;;;;28.27;20.13;;;;;;;11.08;100.00;93210.09;5096649;28;20201;-56
2022/03/31 09:44:21;;;;;;;28.97;20.13;;;;;;;11.19;100.00;93221.28;5096854;28;20211;-62
2022/03/31 09:46:47;;;;;;;27.73;18.80;;;;;;;11.05;100.00;93228.16;5096691;28;20194;-63
2022/03/31 09:49:14;;;;;;;31.80;20.57;;;;;;;11.00;100.00;93214.38;5096792;28;20195;-63
2022/03/31 09:51:42;;;;;;;30.67;20.63;;;;;;;11.14;100.00;93213.72;5096392;28;20279;-63
2022/03/31 09:54:07;;;;;;;32.43;20.90;;;;;;;10.86;100.00;93220.47;5096777;28;20212;-63
2022/03/31 09:56:35;;;;;;;28.00;19.70;;;;;;;10.59;100.00;93223.22;5095565;28;20213;-62
2022/03/31 09:59:02;;;;;;;31.27;20.10;;;;;;;10.73;100.00;93223.34;5097054;28;20252;-62
2022/03/31 10:01:28;;;;;;;29.93;20.60;;;;;;;10.80;100.00;93228.50;5096860;28;20202;-61
2022/03/31 10:03:55;;;;;;;30.70;21.13;;;;;;;10.72;100.00;93226.53;5097147;28;20270;-61
2022/03/31 10:06:21;;;;;;;30.10;18.73;;;;;;;10.82;100.00;93225.31;5096522;28;20201;-64
2022/03/31 10:08:47;;;;;;;29.27;19.20;;;;;;;10.87;100.00;93227.44;5096176;28;20198;-63
2022/03/31 10:11:14;;;;;;;28.00;18.97;;;;;;;11.06;100.00;93220.72;5096214;28;20206;-63
2022/03/31 10:13:46;;;;;;;28.87;19.20;;;;;;;11.03;100.00;93221.66;5096233;28;20202;-62
2022/03/31 10:16:16;;;;;;;29.90;17.97;;;;;;;11.05;100.00;93221.94;5096044;28;20290;-62
2022/03/31 10:18:45;;;;;;;24.77;17.53;;;;;;;10.97;100.00;93215.28;5096900;28;20195;-70
2022/03/31 10:21:11;;;;;;;26.23;18.23;;;;;;;10.84;100.00;93215.47;5096168;28;20293;-70
2022/03/31 10:26:25;;;;;;;28.60;18.30;;;;;;;10.60;100.00;93209.09;5114324;28;20206;-71
2022/03/31 10:29:15;;;;;;;28.10;18.70;;;;;;;10.74;100.00;93210.47;5096490;28;20224;-70
2022/03/31 10:31:44;;;;;;;28.47;19.23;;;;;;;10.63;100.00;93210.19;5096004;28;20211;-70
2022/03/31 10:34:14;;;;;;;32.73;19.83;;;;;;;10.21;100.00;93206.53;5095788;28;20253;-61
2022/03/31 10:36:47;;;;;;;29.67;19.43;;;;;;;10.60;100.00;93208.38;5095971;28;20213;-58
2022/03/31 10:39:31;;;;;;;29.30;19.37;;;;;;;10.76;100.00;93202.56;5096437;28;20329;-62
2022/03/31 10:42:05;;;;;;;27.50;18.67;;;;;;;10.76;100.00;93205.31;5095899;28;20207;-63
2022/03/31 10:44:31;;;;;;;25.73;17.20;;;;;;;10.66;100.00;93195.59;5096045;28;20190;-62
2022/03/31 10:47:05;;;;;;;26.23;18.23;;;;;;;10.43;100.00;93188.06;5096214;28;20205;-62
2022/03/31 10:49:32;;;;;;;27.97;18.63;;;;;;;10.74;100.00;93185.91;5096066;28;20188;-62
2022/03/31 10:51:58;;;;;;;29.07;19.23;;;;;;;10.63;100.00;93185.63;5095635;28;20224;-61
2022/03/31 10:54:27;;;;;;;26.97;19.27;;;;;;;10.47;100.00;93185.94;5096159;28;20295;-61
2022/03/31 10:57:14;;;;;;;28.87;19.37;;;;;;;10.51;100.00;93183.78;5096256;28;20312;-63
2022/03/31 10:59:42;;;;;;;27.43;19.00;;;;;;;10.67;100.00;93186.22;5096186;28;20184;-64
2022/03/31 11:02:13;;;;;;;27.73;19.13;;;;;;;10.68;100.00;93166.66;5096120;28;20193;-64
2022/03/31 11:04:57;;;;;;;30.23;18.63;;;;;;;10.56;100.00;93175.00;5095365;28;20204;-64
2022/03/31 11:07:24;;;;;;;27.87;19.67;;;;;;;10.66;100.00;93162.84;5096592;28;20203;-63
2022/03/31 11:10:19;;;;;;;28.67;19.30;;;;;;;10.90;100.00;93174.63;5099626;28;20276;-64
2022/03/31 11:12:45;;;;;;;28.20;18.13;;;;;;;10.78;100.00;93170.88;5077973;28;20209;-59
2022/03/31 11:15:16;;;;;;;28.40;19.53;;;;;;;10.81;100.00;93163.75;5098946;28;20207;-62
2022/03/31 11:17:42;;;;;;;30.27;20.43;;;;;;;10.92;100.00;93175.69;5099323;28;20278;-61